createdAt,value
2023-01-17T00:01:47.738Z,8.02
2023-01-17T00:04:32.811Z,7.81
2023-01-17T00:07:17.667Z,7.86
2023-01-17T00:09:53.009Z,7.26
2023-01-17T00:12:24.559Z,7.87
2023-01-17T00:14:53.254Z,8.11
2023-01-17T00:17:19.886Z,8.15
2023-01-17T00:20:04.676Z,8.41
2023-01-17T00:22:50.519Z,7.51
2023-01-17T00:25:44.200Z,8.06
2023-01-17T00:28:35.439Z,8.23
2023-01-17T00:31:02.839Z,8.12
2023-01-17T00:33:29.640Z,8.41
2023-01-17T00:35:57.450Z,8.54
2023-01-17T00:38:27.031Z,8.46
2023-01-17T00:40:53.553Z,8.33
2023-01-17T00:43:41.899Z,8.39
2023-01-17T00:46:27.196Z,8.26
2023-01-17T00:49:11.949Z,7.71
2023-01-17T00:51:57.280Z,8.23
2023-01-17T00:54:42.022Z,8.37
2023-01-17T00:57:26.903Z,8.67
2023-01-17T01:00:11.550Z,8.45
2023-01-17T01:02:57.534Z,8.19
2023-01-17T01:05:42.779Z,7.94
2023-01-17T01:08:47.992Z,8.14
2023-01-17T01:11:38.394Z,8.51
2023-01-17T01:14:24.674Z,8.20
2023-01-17T01:17:09.509Z,7.59
2023-01-17T01:19:54.175Z,7.60
2023-01-17T01:22:38.848Z,7.32
2023-01-17T01:25:24.100Z,7.15
2023-01-17T01:28:08.959Z,6.89
2023-01-17T01:30:53.779Z,7.52
2023-01-17T01:33:20.350Z,7.35
2023-01-17T01:35:51.343Z,7.08
2023-01-17T01:38:19.326Z,6.74
2023-01-17T01:40:56.164Z,7.45
2023-01-17T01:43:43.246Z,7.31
2023-01-17T01:46:13.733Z,7.85
2023-01-17T01:49:06.097Z,6.57
2023-01-17T01:51:43.637Z,7.50
2023-01-17T01:54:24.360Z,7.02
2023-01-17T01:56:53.994Z,7.60
2023-01-17T01:59:22.528Z,7.17
2023-01-17T02:01:51.436Z,7.39
2023-01-17T02:04:19.489Z,7.12
2023-01-17T02:06:49.138Z,7.36
2023-01-17T02:09:17.809Z,7.27
2023-01-17T02:11:45.916Z,7.36
2023-01-17T02:14:20.652Z,7.66
2023-01-17T02:17:05.428Z,6.88
2023-01-17T02:19:43.867Z,7.13
2023-01-17T02:22:34.776Z,7.47
2023-01-17T02:25:01.123Z,7.03
2023-01-17T02:27:37.181Z,7.05
2023-01-17T02:30:24.748Z,7.18
2023-01-17T02:33:03.085Z,6.58
2023-01-17T02:35:51.217Z,6.87
2023-01-17T02:39:02.639Z,7.33
2023-01-17T02:41:42.755Z,7.22
2023-01-17T02:44:10.989Z,6.69
2023-01-17T02:46:46.573Z,7.53
2023-01-17T02:49:14.465Z,6.97
2023-01-17T02:51:59.008Z,6.64
2023-01-17T02:54:37.538Z,7.79
2023-01-17T02:57:42.451Z,7.42
2023-01-17T03:00:17.440Z,7.07
2023-01-17T03:03:35.115Z,7.37
2023-01-17T03:06:11.903Z,7.74
2023-01-17T03:08:41.512Z,7.35
2023-01-17T03:11:09.736Z,6.25
2023-01-17T03:13:36.711Z,6.96
2023-01-17T03:16:08.313Z,6.66
2023-01-17T03:18:34.850Z,6.49
2023-01-17T03:21:01.316Z,6.30
2023-01-17T03:23:27.712Z,7.05
2023-01-17T03:25:54.144Z,6.86
2023-01-17T03:28:20.545Z,6.83
2023-01-17T03:30:47.071Z,6.35
2023-01-17T03:33:17.065Z,6.55
2023-01-17T03:35:45.211Z,6.32
2023-01-17T03:38:11.865Z,6.70
2023-01-17T03:40:38.268Z,7.28
2023-01-17T03:43:04.718Z,7.08
2023-01-17T03:45:31.199Z,6.90
2023-01-17T03:47:58.980Z,7.33
2023-01-17T03:50:25.913Z,7.49
2023-01-17T03:52:52.378Z,6.45
2023-01-17T03:55:18.856Z,6.85
2023-01-17T03:57:45.244Z,6.11
2023-01-17T04:00:12.306Z,6.39
2023-01-17T04:02:38.782Z,6.47
2023-01-17T04:05:05.533Z,7.27
2023-01-17T04:07:31.942Z,7.79
2023-01-17T04:09:58.334Z,6.48
2023-01-17T04:12:24.746Z,7.61
2023-01-17T04:14:51.134Z,7.02
2023-01-17T04:17:19.839Z,7.27
2023-01-17T04:19:46.601Z,7.14
2023-01-17T04:22:13.006Z,7.78
2023-01-17T04:24:39.390Z,7.49
2023-01-17T04:27:05.885Z,6.98
2023-01-17T04:29:32.566Z,7.31
2023-01-17T04:31:58.967Z,7.16
2023-01-17T04:34:25.499Z,7.26
2023-01-17T04:36:51.882Z,6.44
2023-01-17T04:39:18.363Z,7.02
2023-01-17T04:41:44.806Z,7.12
2023-01-17T04:44:11.222Z,6.34
2023-01-17T04:46:37.596Z,7.05
2023-01-17T04:49:04.002Z,7.33
2023-01-17T04:51:30.412Z,6.70
2023-01-17T04:53:56.888Z,6.61
2023-01-17T04:56:23.297Z,6.91
2023-01-17T04:58:49.706Z,6.86
2023-01-17T05:01:16.193Z,7.12
2023-01-17T05:03:42.715Z,6.88
2023-01-17T05:06:09.181Z,6.73
2023-01-17T05:08:35.718Z,6.95
2023-01-17T05:11:02.130Z,7.40
2023-01-17T05:13:28.558Z,6.84
2023-01-17T05:15:57.492Z,6.94
2023-01-17T05:18:24.729Z,6.93
2023-01-17T05:20:51.115Z,7.25
2023-01-17T05:23:17.614Z,7.03
2023-01-17T05:25:44.331Z,6.82
2023-01-17T05:28:12.508Z,7.45
2023-01-17T05:30:39.207Z,7.32
2023-01-17T05:33:05.670Z,6.51
2023-01-17T05:35:35.509Z,6.72
2023-01-17T05:38:02.359Z,6.30
2023-01-17T05:40:31.243Z,6.55
2023-01-17T05:42:59.800Z,5.94
2023-01-17T05:45:27.880Z,5.99
2023-01-17T05:47:55.843Z,6.74
2023-01-17T05:50:25.193Z,6.31
2023-01-17T05:52:54.357Z,6.24
2023-01-17T05:55:21.801Z,6.11
2023-01-17T05:57:48.431Z,6.23
2023-01-17T06:00:16.840Z,7.06
2023-01-17T06:02:44.165Z,6.59
2023-01-17T06:05:11.189Z,5.83
2023-01-17T06:07:38.463Z,5.75
2023-01-17T06:10:05.567Z,6.00
2023-01-17T06:12:32.403Z,5.79
2023-01-17T06:14:58.907Z,5.78
2023-01-17T06:17:25.405Z,5.84
2023-01-17T06:19:51.829Z,5.50
2023-01-17T06:22:18.295Z,5.55
2023-01-17T06:24:44.679Z,5.96
2023-01-17T06:27:11.243Z,5.26
2023-01-17T06:29:37.699Z,5.88
2023-01-17T06:32:04.613Z,5.54
2023-01-17T06:34:31.406Z,5.04
2023-01-17T06:36:57.996Z,5.25
2023-01-17T06:39:24.611Z,4.90
2023-01-17T06:41:51.007Z,5.98
2023-01-17T06:44:17.551Z,5.51
2023-01-17T06:46:45.033Z,5.15
2023-01-17T06:49:11.537Z,4.92
2023-01-17T06:51:37.994Z,5.15
2023-01-17T06:54:04.603Z,4.74
2023-01-17T06:56:32.253Z,5.30
2023-01-17T06:58:58.708Z,4.98
2023-01-17T07:01:25.438Z,4.85
2023-01-17T07:03:52.549Z,4.73
2023-01-17T07:06:19.620Z,4.79
2023-01-17T07:08:47.445Z,5.08
2023-01-17T07:11:13.871Z,4.95
2023-01-17T07:13:40.835Z,5.32
2023-01-17T07:16:08.128Z,5.19
2023-01-17T07:18:34.982Z,4.84
2023-01-17T07:21:01.477Z,4.71
2023-01-17T07:23:27.923Z,5.43
2023-01-17T07:25:56.407Z,5.42
2023-01-17T07:28:23.139Z,5.16
2023-01-17T07:30:50.074Z,4.83
2023-01-17T07:33:18.124Z,5.54
2023-01-17T07:35:45.362Z,5.12
2023-01-17T07:38:17.143Z,4.82
2023-01-17T07:40:44.381Z,5.41
2023-01-17T07:43:14.221Z,5.07
2023-01-17T07:45:45.605Z,5.55
2023-01-17T07:48:12.634Z,5.38
2023-01-17T07:50:39.157Z,4.70
2023-01-17T07:53:05.877Z,4.83
2023-01-17T07:55:32.502Z,5.49
2023-01-17T07:57:58.927Z,4.43
2023-01-17T08:00:27.501Z,5.15
2023-01-17T08:02:58.706Z,4.37
2023-01-17T08:05:26.001Z,5.45
2023-01-17T08:07:52.789Z,5.28
2023-01-17T08:10:19.753Z,5.53
2023-01-17T08:12:50.381Z,4.53
2023-01-17T08:15:17.906Z,5.65
2023-01-17T08:17:49.659Z,5.16
2023-01-17T08:20:16.634Z,5.48
2023-01-17T08:22:43.073Z,4.66
2023-01-17T08:25:09.644Z,5.39
2023-01-17T08:27:36.403Z,4.88
2023-01-17T08:30:03.096Z,5.10
2023-01-17T08:32:29.503Z,5.40
2023-01-17T08:34:57.124Z,5.15
2023-01-17T08:37:23.740Z,4.71
2023-01-17T08:39:51.101Z,5.85
2023-01-17T08:42:17.984Z,5.96
2023-01-17T08:44:44.468Z,6.20
2023-01-17T08:47:10.955Z,6.35
2023-01-17T08:49:37.359Z,5.85
2023-01-17T08:52:05.164Z,5.62
2023-01-17T08:54:31.820Z,5.88
2023-01-17T08:56:58.326Z,5.70
2023-01-17T08:59:24.806Z,5.59
2023-01-17T09:01:52.532Z,5.81
2023-01-17T09:04:19.325Z,5.65
2023-01-17T09:06:48.134Z,6.24
2023-01-17T09:09:16.903Z,5.90
2023-01-17T09:11:43.388Z,6.05
2023-01-17T09:14:12.695Z,5.86
2023-01-17T09:16:39.187Z,5.24
2023-01-17T09:19:05.618Z,5.90
2023-01-17T09:21:32.038Z,4.97
2023-01-17T09:23:58.480Z,5.42
2023-01-17T09:26:27.708Z,5.97
2023-01-17T09:28:55.059Z,5.59
2023-01-17T09:31:23.248Z,6.29
2023-01-17T09:33:51.408Z,6.60
2023-01-17T09:36:17.829Z,5.83
2023-01-17T09:38:44.653Z,6.32
2023-01-17T09:41:44.372Z,5.99
2023-01-17T09:44:22.880Z,6.14
2023-01-17T09:46:52.112Z,6.08
2023-01-17T09:49:42.179Z,6.47
2023-01-17T09:52:21.081Z,6.99
2023-01-17T09:54:49.017Z,6.43
2023-01-17T09:57:42.987Z,6.07
2023-01-17T10:00:15.728Z,6.00
2023-01-17T10:03:20.008Z,6.33
2023-01-17T10:06:06.709Z,6.43
2023-01-17T10:08:43.663Z,7.03
2023-01-17T10:11:20.160Z,7.06
2023-01-17T10:13:53.578Z,6.98
2023-01-17T10:16:55.383Z,6.95
2023-01-17T10:19:31.567Z,6.56
2023-01-17T10:22:10.160Z,6.78
2023-01-17T10:25:08.942Z,6.59
2023-01-17T10:27:39.732Z,5.91
2023-01-17T10:30:26.647Z,6.91
2023-01-17T10:32:56.433Z,6.84
2023-01-17T10:35:29.405Z,6.58
2023-01-17T10:37:58.452Z,6.39
2023-01-17T10:41:18.260Z,6.07
2023-01-17T10:44:10.518Z,6.09
2023-01-17T10:46:46.869Z,6.70
2023-01-17T10:49:18.822Z,6.15
2023-01-17T10:51:52.429Z,7.32
2023-01-17T10:54:35.980Z,6.31
2023-01-17T10:57:02.436Z,6.53
2023-01-17T10:59:33.492Z,6.66
2023-01-17T11:02:06.820Z,6.80
2023-01-17T11:04:39.897Z,7.13
2023-01-17T11:07:26.512Z,6.63
2023-01-17T11:09:55.225Z,7.41
2023-01-17T11:12:30.207Z,7.34
2023-01-17T11:15:10.359Z,6.06
2023-01-17T11:18:02.019Z,6.82
2023-01-17T11:20:35.002Z,7.15
2023-01-17T11:23:07.402Z,6.83
2023-01-17T11:25:34.853Z,6.60
2023-01-17T11:28:08.259Z,6.57
2023-01-17T11:30:34.808Z,7.30
2023-01-17T11:33:04.244Z,6.58
2023-01-17T11:35:34.089Z,6.72
2023-01-17T11:38:21.307Z,6.97
2023-01-17T11:40:49.359Z,6.46
2023-01-17T11:43:22.752Z,6.44
2023-01-17T11:46:18.223Z,6.68
2023-01-17T11:48:50.095Z,6.46
2023-01-17T11:51:24.786Z,7.08
2023-01-17T11:53:54.164Z,6.86
2023-01-17T11:56:35.740Z,6.50
2023-01-17T11:59:34.628Z,7.39
2023-01-17T12:02:37.551Z,6.41
2023-01-17T12:05:15.179Z,6.98
2023-01-17T12:07:47.822Z,6.30
2023-01-17T12:10:26.169Z,6.79
2023-01-17T12:13:39.313Z,6.86
2023-01-17T12:16:33.089Z,6.71
2023-01-17T12:19:25.061Z,6.90
2023-01-17T12:22:21.445Z,7.17
2023-01-17T12:25:07.365Z,6.86
2023-01-17T12:27:52.567Z,6.36
2023-01-17T12:30:49.633Z,6.60
2023-01-17T12:33:23.528Z,7.12
2023-01-17T12:35:53.008Z,6.99
2023-01-17T12:38:35.697Z,6.79
2023-01-17T12:41:18.115Z,6.72
2023-01-17T12:43:45.735Z,6.88
2023-01-17T12:46:31.667Z,7.61
2023-01-17T12:49:24.340Z,7.14
2023-01-17T12:51:59.475Z,7.10
2023-01-17T12:54:34.163Z,7.29
2023-01-17T12:57:13.889Z,7.26
2023-01-17T12:59:49.908Z,7.35
2023-01-17T13:02:31.372Z,7.14
2023-01-17T13:05:07.195Z,6.84
2023-01-17T13:07:49.901Z,6.23
2023-01-17T13:10:35.421Z,7.15
2023-01-17T13:13:16.548Z,6.70
2023-01-17T13:15:43.543Z,7.04
2023-01-17T13:18:23.091Z,7.17
2023-01-17T13:21:14.546Z,7.01
2023-01-17T13:24:03.224Z,7.25
2023-01-17T13:26:36.398Z,7.03
2023-01-17T13:29:19.589Z,7.52
2023-01-17T13:32:05.985Z,6.98
2023-01-17T13:34:50.820Z,6.83
2023-01-17T13:37:39.236Z,6.71
2023-01-17T13:40:18.715Z,6.59
2023-01-17T13:42:56.069Z,7.26
2023-01-17T13:45:37.478Z,7.34
2023-01-17T13:48:12.995Z,6.96
2023-01-17T13:50:47.265Z,7.21
2023-01-17T13:53:29.040Z,6.55
2023-01-17T13:56:00.032Z,6.91
2023-01-17T13:58:48.627Z,8.02
2023-01-17T14:01:15.684Z,7.20
2023-01-17T14:03:54.338Z,7.13
2023-01-17T14:06:36.213Z,6.96
2023-01-17T14:09:26.547Z,7.37
2023-01-17T14:12:11.293Z,6.79
2023-01-17T14:14:40.930Z,7.32
2023-01-17T14:17:16.376Z,7.62
2023-01-17T14:19:52.153Z,7.08
2023-01-17T14:22:18.520Z,7.08
2023-01-17T14:25:12.103Z,6.94
2023-01-17T14:27:47.308Z,7.18
2023-01-17T14:30:16.792Z,6.86
2023-01-17T14:33:04.631Z,6.30
2023-01-17T14:35:40.233Z,6.26
2023-01-17T14:38:20.171Z,6.64
2023-01-17T14:40:54.440Z,6.97
2023-01-17T14:43:23.497Z,6.82
2023-01-17T14:45:57.931Z,7.62
2023-01-17T14:48:24.918Z,7.33
2023-01-17T14:50:58.525Z,7.05
2023-01-17T14:53:28.018Z,6.99
2023-01-17T14:55:57.646Z,7.37
2023-01-17T14:58:27.247Z,6.73
2023-01-17T15:01:07.066Z,6.90
2023-01-17T15:04:01.528Z,6.58
2023-01-17T15:06:35.472Z,6.96
2023-01-17T15:09:09.295Z,7.27
2023-01-17T15:11:36.854Z,7.12
2023-01-17T15:14:05.907Z,7.02
2023-01-17T15:16:35.414Z,7.26
2023-01-17T15:19:09.337Z,6.76
2023-01-17T15:21:42.526Z,7.30
2023-01-17T15:24:16.650Z,7.24
2023-01-17T15:26:43.862Z,7.37
2023-01-17T15:29:23.669Z,7.34
2023-01-17T15:31:50.972Z,7.06
2023-01-17T15:34:27.140Z,7.26
2023-01-17T15:36:57.271Z,6.69
2023-01-17T15:39:30.096Z,7.07
2023-01-17T15:41:59.375Z,7.15
2023-01-17T15:44:47.646Z,7.30
2023-01-17T15:47:35.415Z,7.16
2023-01-17T15:50:31.912Z,7.30
2023-01-17T15:53:02.821Z,7.25
2023-01-17T15:55:38.048Z,7.07
2023-01-17T15:58:21.132Z,7.12
2023-01-17T16:00:47.871Z,6.83
2023-01-17T16:03:25.439Z,7.09
2023-01-17T16:05:57.864Z,7.02
2023-01-17T16:08:28.240Z,6.61
2023-01-17T16:11:01.794Z,6.68
2023-01-17T16:13:33.353Z,6.89
2023-01-17T16:16:21.048Z,6.55
2023-01-17T16:18:48.950Z,6.56
2023-01-17T16:21:27.179Z,6.69
2023-01-17T16:23:54.213Z,6.62
2023-01-17T16:26:21.118Z,6.56
2023-01-17T16:28:48.287Z,6.40
2023-01-17T16:31:15.717Z,6.41
2023-01-17T16:33:42.458Z,6.41
2023-01-17T16:36:16.356Z,6.26
2023-01-17T16:38:44.991Z,6.32
2023-01-17T16:41:11.604Z,6.36
2023-01-17T16:43:38.128Z,6.20
2023-01-17T16:46:04.989Z,6.29
2023-01-17T16:48:31.460Z,6.08
2023-01-17T16:50:59.253Z,6.25
2023-01-17T16:53:28.029Z,6.25
2023-01-17T16:55:57.436Z,6.28
2023-01-17T16:58:24.344Z,6.38
2023-01-17T17:00:50.796Z,6.33
2023-01-17T17:03:19.759Z,6.26
2023-01-17T17:05:55.389Z,6.17
2023-01-17T17:08:22.304Z,5.89
2023-01-17T17:10:48.704Z,5.72
2023-01-17T17:13:15.156Z,5.59
2023-01-17T17:15:45.844Z,5.46
2023-01-17T17:18:17.295Z,5.78
2023-01-17T17:20:45.072Z,5.74
2023-01-17T17:23:11.605Z,5.79
2023-01-17T17:25:38.173Z,5.84
2023-01-17T17:28:06.292Z,5.86
2023-01-17T17:30:33.289Z,5.89
2023-01-17T17:32:59.777Z,5.80
2023-01-17T17:35:26.755Z,5.76
2023-01-17T17:37:53.486Z,5.74
2023-01-17T17:40:20.159Z,5.76
2023-01-17T17:42:46.628Z,5.69
2023-01-17T17:45:13.134Z,5.69
2023-01-17T17:47:39.621Z,5.66
2023-01-17T17:50:06.547Z,5.54
2023-01-17T17:52:32.947Z,5.54
2023-01-17T17:54:59.521Z,5.57
2023-01-17T17:57:26.225Z,5.53
2023-01-17T17:59:55.947Z,5.52
2023-01-17T18:02:22.429Z,5.42
2023-01-17T18:04:48.892Z,5.40
2023-01-17T18:07:15.374Z,5.22
2023-01-17T18:09:41.893Z,5.20
2023-01-17T18:12:08.366Z,5.14
2023-01-17T18:14:34.873Z,5.20
2023-01-17T18:17:01.410Z,5.24
2023-01-17T18:19:27.905Z,5.19
2023-01-17T18:21:54.484Z,5.09
2023-01-17T18:24:22.932Z,5.08
2023-01-17T18:26:51.328Z,5.11
2023-01-17T18:29:19.575Z,4.95
2023-01-17T18:31:47.213Z,5.08
2023-01-17T18:34:24.386Z,5.13
2023-01-17T18:36:51.598Z,4.93
2023-01-17T18:39:24.545Z,4.44
2023-01-17T18:41:51.537Z,4.53
2023-01-17T18:44:21.750Z,4.97
2023-01-17T18:46:50.085Z,4.97
2023-01-17T18:49:18.979Z,4.74
2023-01-17T18:51:50.948Z,4.61
2023-01-17T18:54:19.230Z,4.86
2023-01-17T18:56:45.969Z,4.52
2023-01-17T18:59:13.696Z,4.28
2023-01-17T19:01:43.736Z,4.38
2023-01-17T19:04:11.542Z,4.53
2023-01-17T19:06:40.699Z,4.65
2023-01-17T19:09:08.817Z,4.66
2023-01-17T19:11:36.616Z,4.60
2023-01-17T19:14:03.612Z,4.66
2023-01-17T19:16:34.709Z,4.61
2023-01-17T19:19:04.750Z,4.52
2023-01-17T19:21:31.609Z,4.40
2023-01-17T19:23:58.661Z,4.18
2023-01-17T19:26:27.183Z,4.20
2023-01-17T19:29:03.531Z,4.38
2023-01-17T19:31:31.579Z,4.50
2023-01-17T19:33:59.596Z,4.40
2023-01-17T19:36:36.534Z,4.33
2023-01-17T19:39:07.590Z,4.42
2023-01-17T19:41:35.890Z,4.41
2023-01-17T19:44:09.629Z,4.24
2023-01-17T19:46:36.951Z,4.11
2023-01-17T19:49:06.858Z,3.71
2023-01-17T19:51:33.531Z,4.10
2023-01-17T19:54:01.374Z,3.70
2023-01-17T19:56:28.683Z,3.87
2023-01-17T19:58:57.198Z,3.73
2023-01-17T20:01:27.948Z,3.80
2023-01-17T20:03:57.378Z,3.79
2023-01-17T20:06:26.910Z,3.48
2023-01-17T20:08:53.373Z,3.53
2023-01-17T20:11:23.188Z,3.49
2023-01-17T20:13:54.215Z,3.59
2023-01-17T20:16:21.294Z,3.54
2023-01-17T20:18:47.999Z,3.65
2023-01-17T20:21:22.679Z,3.71
2023-01-17T20:23:50.521Z,3.91
2023-01-17T20:26:20.047Z,3.95
2023-01-17T20:28:48.803Z,3.94
2023-01-17T20:31:17.931Z,3.91
2023-01-17T20:33:46.875Z,3.95
2023-01-17T20:36:15.595Z,3.92
2023-01-17T20:38:46.302Z,3.93
2023-01-17T20:41:21.531Z,3.81
2023-01-17T20:43:59.221Z,3.86
2023-01-17T20:46:28.354Z,3.87
2023-01-17T20:48:57.667Z,3.91
2023-01-17T20:51:26.536Z,3.92
2023-01-17T20:53:58.159Z,3.89
2023-01-17T20:56:25.328Z,3.82
2023-01-17T20:58:55.160Z,3.72
2023-01-17T21:01:22.608Z,3.71
2023-01-17T21:03:51.583Z,3.69
2023-01-17T21:06:19.633Z,3.67
2023-01-17T21:08:47.032Z,3.71
2023-01-17T21:11:16.021Z,3.47
2023-01-17T21:13:43.349Z,3.51
2023-01-17T21:16:12.649Z,3.40
2023-01-17T21:18:39.046Z,3.37
2023-01-17T21:21:08.340Z,3.27
2023-01-17T21:23:36.138Z,3.51
2023-01-17T21:26:03.199Z,3.54
2023-01-17T21:28:32.879Z,3.57
2023-01-17T21:30:59.862Z,3.61
2023-01-17T21:33:29.312Z,3.52
2023-01-17T21:36:05.227Z,3.34
2023-01-17T21:38:32.784Z,3.06
2023-01-17T21:40:59.243Z,2.93
2023-01-17T21:43:25.653Z,3.05
2023-01-17T21:45:52.339Z,2.90
2023-01-17T21:48:18.893Z,2.96
2023-01-17T21:50:45.308Z,3.08
2023-01-17T21:53:11.760Z,3.15
2023-01-17T21:55:56.949Z,3.17
2023-01-17T21:58:41.731Z,3.05
2023-01-17T22:01:17.736Z,2.92
2023-01-17T22:03:58.658Z,2.88
2023-01-17T22:06:28.323Z,3.13
2023-01-17T22:08:55.199Z,2.77
2023-01-17T22:11:24.451Z,3.24
2023-01-17T22:13:51.451Z,3.39
2023-01-17T22:16:20.904Z,3.38
2023-01-17T22:18:47.895Z,3.12
2023-01-17T22:21:26.157Z,2.68
2023-01-17T22:23:57.664Z,2.64
2023-01-17T22:26:26.963Z,2.91
2023-01-17T22:28:54.096Z,2.79
2023-01-17T22:31:23.414Z,2.82
2023-01-17T22:34:07.955Z,2.84
2023-01-17T22:36:35.002Z,2.75
2023-01-17T22:39:01.878Z,2.71
2023-01-17T22:41:34.641Z,2.58
2023-01-17T22:44:08.477Z,2.73
2023-01-17T22:46:39.542Z,3.01
2023-01-17T22:49:08.271Z,3.14
2023-01-17T22:51:35.143Z,3.09
2023-01-17T22:54:01.806Z,2.90
2023-01-17T22:56:32.949Z,2.64
2023-01-17T22:59:03.498Z,2.71
2023-01-17T23:01:32.655Z,2.75
2023-01-17T23:04:01.870Z,2.87
2023-01-17T23:06:34.037Z,2.94
2023-01-17T23:09:03.665Z,2.87
2023-01-17T23:11:43.795Z,3.14
2023-01-17T23:14:11.835Z,3.05
2023-01-17T23:17:06.205Z,3.09
2023-01-17T23:19:36.141Z,3.25
2023-01-17T23:22:17.557Z,3.38
2023-01-17T23:24:53.045Z,3.44
2023-01-17T23:27:47.800Z,3.08
2023-01-17T23:30:18.639Z,3.00
2023-01-17T23:32:50.747Z,3.32
2023-01-17T23:35:18.891Z,3.36
2023-01-17T23:38:04.325Z,3.06
2023-01-17T23:40:32.262Z,3.00
2023-01-17T23:43:17.356Z,2.97
2023-01-17T23:45:43.963Z,3.01
2023-01-17T23:48:10.690Z,3.11
2023-01-17T23:50:42.531Z,3.27
2023-01-17T23:53:09.833Z,3.24
2023-01-17T23:55:42.597Z,3.00
2023-01-17T23:58:11.253Z,2.86
